Terminal Aerodrome Forecast
Issued by NWS

Home | Current Version | Previous Version | Text Only | Print | Product List | Glossary On
Versions: 1 2 3 4 5 6 7 8 9 10 11 12 13 14 15
357
FTUS43 KGRB 281134
TAFAUW
TAF
KAUW 281134Z 2812/2912 06005KT P6SM VCSH SCT009 OVC015
      TEMPO 2812/2816 5SM -RA BR BKN008
     FM281600 06006KT P6SM VCSH SCT010 BKN020
     FM282000 06007KT P6SM SCT015 BKN030
     FM290200 03003KT P6SM SCT030 BKN100=

USA.gov is the U.S. government's official web portal to all federal, state and local government web resources and services.